Belfield, North Dakota
Current Conditions -  °F | °C
As of 6:04 AM on Friday 31 Oct 2014 (Local Time) from KDIK Reporting Station
Overcast Overcast  
Wind Chill: 14°   Ceiling: 700
Heat Index: 27°   Visibility: 10mi
Dew Point: 22°   Wind: 20mph
Humidity: 81%   Direction: 160°SSE
Pressure: 30.36"   Gusts: NA
Location:  46.89°N, 103.2°W
Report Text: KDIK 311204Z AUTO 16017KT 10SM BKN007 OVC010 M03/M06 A3036 RMK AO2 T10281056
Loading
Personal Weather Stations






























Interactive Weather Map
Tropical Storm Tracking
New forecast layout! Learn more

10-Day Weather Forecast

Advertisements
Track Severe Weather on mobile